Time;durP1;ratioP1;P1;durP2;ratioP2;P2;SDS_P1;SDS_P2;PMS_P1;PMS_P2;Temp;Humidity;BMP_temperature;BMP_pressure;BME280_temperature;BME280_humidity;BME280_pressure;Samples;Min_cycle;Max_cycle;Signal;HPM_P1;HPM_P2
2022/12/09 00:00:00;;;;;;;;;;;3.00;99.90;;;;;;5061127;28;21133;-60
2022/12/09 00:02:27;;;;;;;;;;;3.00;99.90;;;;;;5065986;28;20343;-62
2022/12/09 00:04:53;;;;;;;;;;;2.90;99.90;;;;;;5057394;28;19920;-59
2022/12/09 00:07:18;;;;;;;;;;;3.00;99.90;;;;;;5060907;28;20259;-59
2022/12/09 00:09:44;;;;;;;;;;;3.00;99.90;;;;;;5063551;28;20301;-60
2022/12/09 00:12:09;;;;;;;;;;;2.90;99.90;;;;;;5065555;28;19917;-61
2022/12/09 00:14:35;;;;;;;;;;;2.90;99.90;;;;;;5058480;28;19913;-57
2022/12/09 00:17:00;;;;;;;;;;;2.90;99.90;;;;;;5064094;28;20338;-58
2022/12/09 00:19:25;;;;;;;;;;;2.90;99.90;;;;;;5065451;28;19923;-59
2022/12/09 00:21:51;;;;;;;;;;;2.90;99.90;;;;;;5066671;28;19916;-60
2022/12/09 00:24:16;;;;;;;;;;;2.90;99.90;;;;;;5064135;28;19952;-61
2022/12/09 00:26:42;;;;;;;;;;;2.90;99.90;;;;;;5068305;28;19917;-61
2022/12/09 00:29:07;;;;;;;;;;;2.90;99.90;;;;;;5067911;28;20310;-63
2022/12/09 00:31:34;;;;;;;;;;;2.90;99.90;;;;;;5062404;28;19968;-63
2022/12/09 00:34:00;;;;;;;;;;;2.80;99.90;;;;;;5058453;28;19920;-57
2022/12/09 00:36:26;;;;;;;;;;;2.90;99.90;;;;;;5062934;28;20328;-62
2022/12/09 00:38:52;;;;;;;;;;;2.90;99.90;;;;;;5059910;28;19923;-61
2022/12/09 00:41:18;;;;;;;;;;;2.90;99.90;;;;;;5065278;28;19920;-61
2022/12/09 00:43:43;;;;;;;;;;;2.90;99.90;;;;;;5064516;28;19916;-60
2022/12/09 00:46:09;;;;;;;;;;;2.90;99.90;;;;;;5070023;28;19912;-62
2022/12/09 00:48:37;;;;;;;;;;;3.00;99.90;;;;;;5064337;28;19917;-61
2022/12/09 00:51:03;;;;;;;;;;;3.00;99.90;;;;;;5065821;28;20519;-61
2022/12/09 00:53:28;;;;;;;;;;;3.00;99.90;;;;;;5060181;28;19920;-63
2022/12/09 00:55:54;;;;;;;;;;;3.00;99.90;;;;;;5068386;28;19920;-56
2022/12/09 00:58:19;;;;;;;;;;;3.00;99.90;;;;;;5064234;28;19932;-60
2022/12/09 01:00:45;;;;;;;;;;;3.00;99.90;;;;;;5068724;28;19995;-61
2022/12/09 01:03:11;;;;;;;;;;;3.10;99.90;;;;;;5068000;28;19920;-61
2022/12/09 01:05:37;;;;;;;;;;;3.00;99.90;;;;;;5064517;28;19966;-58
2022/12/09 01:08:02;;;;;;;;;;;3.00;99.90;;;;;;5060734;28;19955;-63
2022/12/09 01:10:28;;;;;;;;;;;3.00;99.90;;;;;;5059088;28;20370;-64
2022/12/09 01:12:53;;;;;;;;;;;3.00;99.90;;;;;;5059870;28;19912;-60
2022/12/09 01:15:19;;;;;;;;;;;3.00;99.90;;;;;;5059714;28;20381;-61
2022/12/09 01:17:44;;;;;;;;;;;2.90;99.90;;;;;;5058655;28;20361;-60
2022/12/09 01:20:10;;;;;;;;;;;2.80;99.90;;;;;;5066292;28;19912;-58
2022/12/09 01:22:35;;;;;;;;;;;2.80;99.90;;;;;;5062967;28;19959;-62
2022/12/09 01:25:01;;;;;;;;;;;2.70;99.90;;;;;;5062522;28;20004;-63
2022/12/09 01:27:29;;;;;;;;;;;2.70;99.90;;;;;;5062585;28;19927;-61
2022/12/09 01:29:54;;;;;;;;;;;2.80;99.90;;;;;;5068223;28;19957;-61
2022/12/09 01:32:20;;;;;;;;;;;2.80;99.90;;;;;;5062669;28;19932;-63
2022/12/09 01:34:45;;;;;;;;;;;2.80;99.90;;;;;;5064381;28;19913;-60
2022/12/09 01:37:11;;;;;;;;;;;2.80;99.90;;;;;;5062742;28;19968;-62
2022/12/09 01:39:36;;;;;;;;;;;2.80;99.90;;;;;;5066467;28;19921;-62
2022/12/09 01:42:02;;;;;;;;;;;2.90;99.90;;;;;;5060287;28;19913;-62
2022/12/09 01:44:29;;;;;;;;;;;2.90;99.90;;;;;;5065310;28;20290;-63
2022/12/09 01:46:56;;;;;;;;;;;2.90;99.90;;;;;;5064496;28;20981;-61
2022/12/09 01:49:30;;;;;;;;;;;3.00;99.90;;;;;;5064414;28;19916;-61
2022/12/09 01:52:04;;;;;;;;;;;2.90;99.90;;;;;;5059999;28;20396;-63
2022/12/09 01:54:30;;;;;;;;;;;3.00;99.90;;;;;;5061534;28;19999;-61
2022/12/09 01:56:56;;;;;;;;;;;3.00;99.90;;;;;;5061492;28;20008;-60
2022/12/09 01:59:21;;;;;;;;;;;3.10;99.90;;;;;;5067565;28;20385;-61
2022/12/09 02:01:48;;;;;;;;;;;3.10;99.90;;;;;;5065859;28;19920;-61
2022/12/09 02:04:14;;;;;;;;;;;3.00;99.90;;;;;;5062391;28;19917;-59
2022/12/09 02:06:40;;;;;;;;;;;3.00;99.90;;;;;;5057423;28;20041;-61
2022/12/09 02:09:05;;;;;;;;;;;3.00;99.90;;;;;;5056411;28;19913;-61
2022/12/09 02:11:31;;;;;;;;;;;2.90;99.90;;;;;;5059573;28;19948;-62
2022/12/09 02:14:02;;;;;;;;;;;2.90;99.90;;;;;;5066989;28;20360;-62
2022/12/09 02:16:29;;;;;;;;;;;2.90;99.90;;;;;;5064479;28;19956;-62
2022/12/09 02:19:13;;;;;;;;;;;2.90;99.90;;;;;;5067178;28;20306;-58
2022/12/09 02:21:58;;;;;;;;;;;2.80;99.90;;;;;;5061771;28;20492;-63
2022/12/09 02:24:29;;;;;;;;;;;2.80;99.90;;;;;;5063406;28;19912;-61
2022/12/09 02:27:02;;;;;;;;;;;2.80;99.90;;;;;;5064959;28;19917;-59
2022/12/09 02:29:31;;;;;;;;;;;2.70;99.90;;;;;;5064940;28;20434;-61
2022/12/09 02:32:15;;;;;;;;;;;2.70;99.90;;;;;;5065265;28;19928;-60
2022/12/09 02:34:44;;;;;;;;;;;2.70;99.90;;;;;;5056320;28;19921;-61
2022/12/09 02:37:18;;;;;;;;;;;2.60;99.90;;;;;;5062356;28;19920;-62
2022/12/09 02:39:58;;;;;;;;;;;2.50;99.90;;;;;;5062392;28;19965;-62
2022/12/09 02:42:25;;;;;;;;;;;2.50;99.90;;;;;;5061411;28;20011;-60
2022/12/09 02:44:51;;;;;;;;;;;2.50;99.90;;;;;;5063689;28;19992;-61
2022/12/09 02:47:18;;;;;;;;;;;2.50;99.90;;;;;;5068012;28;20004;-59
2022/12/09 02:49:45;;;;;;;;;;;2.40;99.90;;;;;;5056124;28;20515;-61
2022/12/09 02:52:12;;;;;;;;;;;2.50;99.90;;;;;;5061812;28;19925;-61
2022/12/09 02:54:38;;;;;;;;;;;2.40;99.90;;;;;;5067087;28;19916;-61
2022/12/09 02:57:09;;;;;;;;;;;2.40;99.90;;;;;;5068672;28;19919;-61
2022/12/09 02:59:34;;;;;;;;;;;2.40;99.90;;;;;;5062755;28;19927;-60
2022/12/09 03:02:09;;;;;;;;;;;2.40;99.90;;;;;;5059612;28;19913;-61
2022/12/09 03:04:37;;;;;;;;;;;2.40;99.90;;;;;;5065077;28;19913;-63
2022/12/09 03:07:11;;;;;;;;;;;2.50;99.90;;;;;;5059483;28;19935;-56
2022/12/09 03:09:39;;;;;;;;;;;2.60;99.90;;;;;;5066435;28;19912;-60
2022/12/09 03:12:06;;;;;;;;;;;2.60;99.90;;;;;;5064127;28;20020;-60
2022/12/09 03:14:41;;;;;;;;;;;2.60;99.90;;;;;;5060293;28;19947;-63
2022/12/09 03:17:16;;;;;;;;;;;2.70;99.90;;;;;;5066089;28;19981;-62
2022/12/09 03:19:44;;;;;;;;;;;2.70;99.90;;;;;;5068861;28;20294;-58
2022/12/09 03:22:11;;;;;;;;;;;2.70;99.90;;;;;;5068653;28;20508;-60
2022/12/09 03:24:39;;;;;;;;;;;2.70;99.90;;;;;;5067938;28;20499;-63
2022/12/09 03:27:06;;;;;;;;;;;2.70;99.90;;;;;;5060401;28;19962;-60
2022/12/09 03:29:34;;;;;;;;;;;2.80;99.90;;;;;;5069802;28;19959;-60
2022/12/09 03:31:59;;;;;;;;;;;2.70;99.90;;;;;;5059800;28;19917;-60
2022/12/09 03:34:29;;;;;;;;;;;2.70;99.90;;;;;;5066160;28;19923;-61
2022/12/09 03:36:56;;;;;;;;;;;2.60;99.90;;;;;;5067355;28;19912;-61
2022/12/09 03:39:26;;;;;;;;;;;2.70;99.90;;;;;;5065867;28;19994;-64
2022/12/09 03:41:54;;;;;;;;;;;2.70;99.90;;;;;;5069832;28;20023;-61
2022/12/09 03:44:39;;;;;;;;;;;2.60;99.90;;;;;;5061859;28;19913;-60
2022/12/09 03:47:05;;;;;;;;;;;2.60;99.90;;;;;;5064104;28;19916;-60
2022/12/09 03:49:32;;;;;;;;;;;2.70;99.90;;;;;;5066697;28;21318;-62
2022/12/09 03:52:17;;;;;;;;;;;2.70;99.90;;;;;;5064645;28;19924;-60
2022/12/09 03:54:46;;;;;;;;;;;2.60;99.90;;;;;;5064629;28;20440;-64
2022/12/09 03:57:14;;;;;;;;;;;2.60;99.90;;;;;;5067943;22;19924;-61
2022/12/09 03:59:42;;;;;;;;;;;2.60;99.90;;;;;;5061836;28;19966;-63
2022/12/09 04:02:07;;;;;;;;;;;2.60;99.90;;;;;;5066073;28;19913;-63
2022/12/09 04:04:33;;;;;;;;;;;2.50;99.90;;;;;;5071280;28;19992;-63
2022/12/09 04:06:59;;;;;;;;;;;2.40;99.90;;;;;;5066591;28;19913;-63
2022/12/09 04:09:24;;;;;;;;;;;2.40;99.90;;;;;;5068069;28;19912;-62
2022/12/09 04:11:50;;;;;;;;;;;2.40;99.90;;;;;;5069895;28;19921;-61
2022/12/09 04:14:15;;;;;;;;;;;2.40;99.90;;;;;;5065955;28;19982;-61
2022/12/09 04:16:41;;;;;;;;;;;2.40;99.90;;;;;;5065564;28;20015;-61
2022/12/09 04:19:06;;;;;;;;;;;2.30;99.90;;;;;;5066930;28;20287;-63
2022/12/09 04:21:32;;;;;;;;;;;2.30;99.90;;;;;;5063746;28;19920;-63
2022/12/09 04:23:57;;;;;;;;;;;2.30;99.90;;;;;;5066684;28;19918;-61
2022/12/09 04:26:23;;;;;;;;;;;2.20;99.90;;;;;;5069417;28;19995;-62
2022/12/09 04:28:48;;;;;;;;;;;2.30;99.90;;;;;;5067329;28;20354;-63
2022/12/09 04:31:15;;;;;;;;;;;2.30;99.90;;;;;;5069836;28;19924;-62
2022/12/09 04:33:41;;;;;;;;;;;2.40;99.90;;;;;;5065882;28;19926;-63
2022/12/09 04:36:08;;;;;;;;;;;2.30;99.90;;;;;;5064133;28;19912;-63
2022/12/09 04:38:33;;;;;;;;;;;2.20;99.90;;;;;;5062768;28;20334;-62
2022/12/09 04:40:59;;;;;;;;;;;2.10;99.90;;;;;;5065168;28;19916;-62
2022/12/09 04:43:24;;;;;;;;;;;2.00;99.90;;;;;;5064543;28;20371;-63
2022/12/09 04:45:50;;;;;;;;;;;1.90;99.90;;;;;;5069258;28;20019;-62
2022/12/09 04:48:15;;;;;;;;;;;1.90;99.90;;;;;;5064838;28;19912;-61
2022/12/09 04:50:41;;;;;;;;;;;1.80;99.90;;;;;;5065396;28;19949;-63
2022/12/09 04:53:06;;;;;;;;;;;1.90;99.90;;;;;;5067920;28;20001;-64
2022/12/09 04:55:31;;;;;;;;;;;2.00;99.90;;;;;;5067734;28;19913;-62
2022/12/09 04:57:57;;;;;;;;;;;2.10;99.90;;;;;;5067764;28;19966;-63
2022/12/09 05:00:22;;;;;;;;;;;2.10;99.90;;;;;;5065816;28;19913;-64
2022/12/09 05:02:48;;;;;;;;;;;2.10;99.90;;;;;;5068044;28;19920;-60
2022/12/09 05:05:13;;;;;;;;;;;2.10;99.90;;;;;;5066163;28;20267;-63
2022/12/09 05:07:39;;;;;;;;;;;2.10;99.90;;;;;;5067221;28;19912;-62
2022/12/09 05:10:04;;;;;;;;;;;2.10;99.90;;;;;;5063032;28;19956;-62
2022/12/09 05:12:31;;;;;;;;;;;2.00;99.90;;;;;;5058446;28;19917;-63
2022/12/09 05:14:57;;;;;;;;;;;1.90;99.90;;;;;;5059503;28;19969;-63
2022/12/09 05:17:23;;;;;;;;;;;1.70;99.90;;;;;;5064132;28;19920;-62
2022/12/09 05:19:48;;;;;;;;;;;1.60;99.90;;;;;;5068766;28;20332;-63
2022/12/09 05:22:15;;;;;;;;;;;1.50;99.90;;;;;;5065135;28;19958;-62
2022/12/09 05:24:42;;;;;;;;;;;1.40;99.90;;;;;;5058997;28;20432;-62
2022/12/09 05:27:08;;;;;;;;;;;1.40;99.90;;;;;;5064404;28;19921;-61
2022/12/09 05:29:33;;;;;;;;;;;1.40;99.90;;;;;;5064683;28;19920;-63
2022/12/09 05:31:58;;;;;;;;;;;1.40;99.90;;;;;;5061226;28;19924;-63
2022/12/09 05:34:24;;;;;;;;;;;1.40;99.90;;;;;;5061472;28;19917;-62
2022/12/09 05:36:50;;;;;;;;;;;1.40;99.90;;;;;;5063896;28;19987;-63
2022/12/09 05:39:16;;;;;;;;;;;1.40;99.90;;;;;;5059983;28;19920;-63
2022/12/09 05:41:42;;;;;;;;;;;1.60;99.90;;;;;;5068065;28;20343;-62
2022/12/09 05:44:09;;;;;;;;;;;1.60;99.90;;;;;;5067999;28;20363;-62
2022/12/09 05:46:34;;;;;;;;;;;1.70;99.90;;;;;;5063938;28;19920;-63
2022/12/09 05:48:59;;;;;;;;;;;1.70;99.90;;;;;;5063394;28;19957;-59
2022/12/09 05:51:26;;;;;;;;;;;1.80;99.90;;;;;;5064469;28;19920;-63
2022/12/09 05:53:52;;;;;;;;;;;1.80;99.90;;;;;;5064264;28;19987;-63
2022/12/09 05:56:18;;;;;;;;;;;1.80;99.90;;;;;;5064519;28;20374;-64
2022/12/09 05:58:43;;;;;;;;;;;1.80;99.90;;;;;;5061218;28;19912;-61
2022/12/09 06:01:09;;;;;;;;;;;1.80;99.90;;;;;;5066484;28;19920;-62
2022/12/09 06:03:35;;;;;;;;;;;1.70;99.90;;;;;;5061927;28;19979;-63
2022/12/09 06:06:08;;;;;;;;;;;1.60;99.90;;;;;;5059061;28;19920;-63
2022/12/09 06:08:33;;;;;;;;;;;1.50;99.90;;;;;;5064545;28;19916;-63
2022/12/09 06:10:59;;;;;;;;;;;1.50;99.90;;;;;;5065745;28;19916;-64
2022/12/09 06:13:24;;;;;;;;;;;1.60;99.90;;;;;;5064154;28;20447;-63
2022/12/09 06:15:49;;;;;;;;;;;1.70;99.90;;;;;;5067375;28;19927;-64
2022/12/09 06:18:15;;;;;;;;;;;1.70;99.90;;;;;;5066567;28;19968;-64
2022/12/09 06:20:40;;;;;;;;;;;1.70;99.90;;;;;;5067432;28;20402;-64
2022/12/09 06:23:06;;;;;;;;;;;1.70;99.90;;;;;;5065914;28;20286;-63
2022/12/09 06:25:31;;;;;;;;;;;1.70;99.90;;;;;;5058106;28;19969;-64
2022/12/09 06:27:57;;;;;;;;;;;1.70;99.90;;;;;;5063336;28;19920;-64
2022/12/09 06:30:22;;;;;;;;;;;1.70;99.90;;;;;;5069083;28;19932;-63
2022/12/09 06:32:48;;;;;;;;;;;1.60;99.90;;;;;;5065894;28;19919;-64
2022/12/09 06:35:13;;;;;;;;;;;1.50;99.90;;;;;;5069806;28;19915;-63
2022/12/09 06:37:39;;;;;;;;;;;1.50;99.90;;;;;;5068817;28;19917;-63
2022/12/09 06:40:06;;;;;;;;;;;1.50;99.90;;;;;;5069948;28;19908;-63
2022/12/09 06:42:31;;;;;;;;;;;1.40;99.90;;;;;;5070377;28;19920;-64
2022/12/09 06:44:57;;;;;;;;;;;1.30;99.90;;;;;;5069911;28;19912;-64
2022/12/09 06:47:22;;;;;;;;;;;1.20;99.90;;;;;;5070225;28;19915;-64
2022/12/09 06:49:47;;;;;;;;;;;1.10;99.90;;;;;;5069768;28;19916;-62
2022/12/09 06:52:13;;;;;;;;;;;1.20;99.90;;;;;;5070735;28;19920;-64
2022/12/09 06:54:38;;;;;;;;;;;1.10;99.90;;;;;;5073576;28;19913;-63
2022/12/09 06:57:04;;;;;;;;;;;1.10;99.90;;;;;;5071969;28;19916;-64
2022/12/09 06:59:29;;;;;;;;;;;1.20;99.90;;;;;;5073168;28;19919;-64
2022/12/09 07:01:55;;;;;;;;;;;1.10;99.90;;;;;;5073882;28;20025;-64
2022/12/09 07:04:21;;;;;;;;;;;1.10;99.90;;;;;;5074152;28;19915;-64
2022/12/09 07:06:47;;;;;;;;;;;1.20;99.90;;;;;;5072206;28;19916;-64
2022/12/09 07:09:13;;;;;;;;;;;1.20;99.90;;;;;;5073445;28;19916;-64
2022/12/09 07:11:41;;;;;;;;;;;1.20;99.90;;;;;;5073941;28;19956;-63
2022/12/09 07:14:07;;;;;;;;;;;1.20;99.90;;;;;;5073983;28;19908;-63
2022/12/09 07:16:33;;;;;;;;;;;1.20;99.90;;;;;;5073709;28;19914;-63
2022/12/09 07:18:59;;;;;;;;;;;1.30;99.90;;;;;;5072875;28;19908;-62
2022/12/09 07:21:25;;;;;;;;;;;1.40;99.90;;;;;;5072445;28;19919;-64
2022/12/09 07:23:50;;;;;;;;;;;1.40;99.90;;;;;;5073431;28;19948;-64
2022/12/09 07:26:16;;;;;;;;;;;1.40;99.90;;;;;;5071685;28;19913;-63
2022/12/09 07:28:42;;;;;;;;;;;1.40;99.90;;;;;;5070870;28;19963;-63
2022/12/09 07:31:24;;;;;;;;;;;1.40;99.90;;;;;;5071563;28;19956;-65
2022/12/09 07:33:50;;;;;;;;;;;1.40;99.90;;;;;;5066911;28;19912;-64
2022/12/09 07:36:16;;;;;;;;;;;1.40;99.90;;;;;;5072055;28;19959;-64
2022/12/09 07:38:41;;;;;;;;;;;1.40;99.90;;;;;;5073160;28;19920;-63
2022/12/09 07:41:08;;;;;;;;;;;1.50;99.90;;;;;;5072917;28;19934;-64
2022/12/09 07:43:34;;;;;;;;;;;1.50;99.90;;;;;;5073116;28;19916;-63
2022/12/09 07:46:04;;;;;;;;;;;1.50;99.90;;;;;;5072251;28;20002;-64
2022/12/09 07:48:29;;;;;;;;;;;1.50;99.90;;;;;;5071753;28;19916;-64
2022/12/09 07:50:58;;;;;;;;;;;1.50;99.90;;;;;;5072691;28;19955;-63
2022/12/09 07:53:23;;;;;;;;;;;1.60;99.90;;;;;;5072186;28;19953;-64
2022/12/09 07:55:49;;;;;;;;;;;1.70;99.90;;;;;;5072961;28;19921;-63
2022/12/09 07:58:14;;;;;;;;;;;1.70;99.90;;;;;;5073239;28;19961;-64
2022/12/09 08:00:40;;;;;;;;;;;1.70;99.90;;;;;;5072782;28;19965;-64
2022/12/09 08:03:05;;;;;;;;;;;1.80;99.90;;;;;;5071533;28;20007;-64
2022/12/09 08:05:30;;;;;;;;;;;1.80;99.90;;;;;;5072344;28;19998;-64
2022/12/09 08:07:56;;;;;;;;;;;1.80;99.90;;;;;;5071208;28;19913;-64
2022/12/09 08:10:21;;;;;;;;;;;1.90;99.90;;;;;;5071944;28;19920;-64
2022/12/09 08:12:47;;;;;;;;;;;1.90;99.90;;;;;;5072493;28;20374;-64
2022/12/09 08:15:12;;;;;;;;;;;2.00;99.90;;;;;;5072526;28;19908;-63
2022/12/09 08:17:38;;;;;;;;;;;2.00;99.90;;;;;;5072407;28;20023;-64
2022/12/09 08:20:03;;;;;;;;;;;2.00;99.90;;;;;;5071417;28;20382;-64
2022/12/09 08:22:29;;;;;;;;;;;2.00;99.90;;;;;;5071290;28;19944;-64
2022/12/09 08:24:54;;;;;;;;;;;2.10;99.90;;;;;;5072263;28;19908;-64
2022/12/09 08:27:20;;;;;;;;;;;2.20;99.90;;;;;;5072210;28;19916;-64
2022/12/09 08:29:45;;;;;;;;;;;2.30;99.90;;;;;;5071834;28;19917;-64
2022/12/09 08:32:10;;;;;;;;;;;2.40;99.90;;;;;;5072188;28;19916;-65
2022/12/09 08:34:36;;;;;;;;;;;2.40;99.90;;;;;;5071235;28;19958;-64
2022/12/09 08:37:01;;;;;;;;;;;2.50;99.90;;;;;;5071037;28;20465;-63
2022/12/09 08:39:27;;;;;;;;;;;2.60;99.90;;;;;;5068707;28;19951;-64
2022/12/09 08:41:52;;;;;;;;;;;2.60;99.90;;;;;;5072087;28;19919;-64
2022/12/09 08:44:19;;;;;;;;;;;2.70;99.90;;;;;;5072057;28;19991;-64
2022/12/09 08:46:46;;;;;;;;;;;2.70;99.90;;;;;;5071746;28;19913;-64
2022/12/09 08:49:12;;;;;;;;;;;2.80;99.90;;;;;;5071807;28;19919;-64
2022/12/09 08:51:38;;;;;;;;;;;2.80;99.90;;;;;;5070200;28;19920;-64
2022/12/09 08:54:04;;;;;;;;;;;2.80;99.90;;;;;;5070662;28;20453;-64
2022/12/09 08:56:30;;;;;;;;;;;2.90;99.90;;;;;;5071975;28;20329;-64
2022/12/09 08:58:55;;;;;;;;;;;2.90;99.90;;;;;;5071329;28;19954;-64
2022/12/09 09:01:22;;;;;;;;;;;3.00;99.90;;;;;;5071635;28;20030;-62
2022/12/09 09:03:48;;;;;;;;;;;3.00;99.90;;;;;;5071602;28;19909;-62
2022/12/09 09:06:14;;;;;;;;;;;3.00;99.90;;;;;;5069967;28;19995;-62
2022/12/09 09:08:39;;;;;;;;;;;3.00;99.90;;;;;;5071349;28;20339;-63
2022/12/09 09:11:09;;;;;;;;;;;3.00;99.90;;;;;;5071461;28;20390;-64
2022/12/09 09:13:36;;;;;;;;;;;2.90;99.90;;;;;;5071747;28;20000;-63
2022/12/09 09:16:01;;;;;;;;;;;2.90;99.90;;;;;;5071140;28;19915;-62
2022/12/09 09:18:26;;;;;;;;;;;2.90;99.90;;;;;;5072189;28;20007;-62
2022/12/09 09:20:56;;;;;;;;;;;2.90;99.90;;;;;;5070612;28;19913;-62
2022/12/09 09:23:21;;;;;;;;;;;2.90;99.90;;;;;;5071385;28;19912;-63
2022/12/09 09:25:47;;;;;;;;;;;2.90;99.90;;;;;;5071321;28;19916;-63
2022/12/09 09:28:12;;;;;;;;;;;3.00;99.90;;;;;;5070655;28;19912;-63
2022/12/09 09:30:38;;;;;;;;;;;3.00;99.90;;;;;;5070890;28;19912;-63
2022/12/09 09:33:03;;;;;;;;;;;3.00;99.90;;;;;;5070568;28;19912;-62
2022/12/09 09:35:29;;;;;;;;;;;3.10;99.90;;;;;;5068820;28;19958;-62
2022/12/09 09:37:54;;;;;;;;;;;3.10;99.90;;;;;;5071193;28;19915;-62
2022/12/09 09:40:20;;;;;;;;;;;3.10;99.90;;;;;;5070857;28;20390;-62
2022/12/09 09:42:49;;;;;;;;;;;3.10;99.90;;;;;;5070924;28;19908;-62
2022/12/09 09:45:17;;;;;;;;;;;3.10;99.90;;;;;;5065291;28;19919;-62
2022/12/09 09:47:44;;;;;;;;;;;3.20;99.90;;;;;;5070863;28;19908;-62
2022/12/09 09:50:20;;;;;;;;;;;3.20;99.90;;;;;;5069407;28;19998;-63
2022/12/09 09:52:46;;;;;;;;;;;3.20;99.90;;;;;;5070987;28;20023;-62
2022/12/09 09:55:13;;;;;;;;;;;3.30;99.90;;;;;;5071218;28;20433;-62
2022/12/09 09:57:49;;;;;;;;;;;3.30;99.90;;;;;;5071779;28;20379;-62
2022/12/09 10:00:24;;;;;;;;;;;3.30;99.90;;;;;;5070585;28;20792;-63
2022/12/09 10:03:00;;;;;;;;;;;3.40;99.90;;;;;;5070766;28;19916;-62
2022/12/09 10:05:42;;;;;;;;;;;3.30;99.90;;;;;;5069802;28;19916;-63
2022/12/09 10:08:26;;;;;;;;;;;3.30;99.90;;;;;;5069396;28;20441;-63
2022/12/09 10:11:06;;;;;;;;;;;3.40;99.90;;;;;;5070161;28;19913;-63
2022/12/09 10:13:40;;;;;;;;;;;3.40;99.90;;;;;;5065713;28;19973;-63
2022/12/09 10:16:16;;;;;;;;;;;3.30;99.90;;;;;;5070287;28;19977;-62
2022/12/09 10:18:54;;;;;;;;;;;3.40;99.90;;;;;;5069259;28;20302;-62
2022/12/09 10:21:20;;;;;;;;;;;3.40;99.90;;;;;;5068968;28;19913;-63
2022/12/09 10:23:46;;;;;;;;;;;3.40;99.90;;;;;;5070462;28;19909;-62
2022/12/09 10:26:17;;;;;;;;;;;3.50;99.90;;;;;;5069624;28;19918;-62
2022/12/09 10:28:45;;;;;;;;;;;3.50;99.90;;;;;;5070108;28;19912;-61
2022/12/09 10:31:10;;;;;;;;;;;3.50;99.90;;;;;;5070307;28;19912;-63
2022/12/09 10:33:37;;;;;;;;;;;3.60;99.90;;;;;;5069368;28;19915;-63
2022/12/09 10:36:03;;;;;;;;;;;3.70;99.90;;;;;;5069787;28;20294;-63
2022/12/09 10:38:29;;;;;;;;;;;3.80;99.90;;;;;;5070529;28;19912;-62
2022/12/09 10:43:33;;;;;;;;;;;3.80;99.90;;;;;;5070143;28;19922;-63
2022/12/09 10:44:20;;;;;;;;;;;3.90;99.90;;;;;;5070658;28;19908;-63
2022/12/09 10:46:45;;;;;;;;;;;4.10;99.90;;;;;;5068519;28;19931;-63
2022/12/09 10:49:19;;;;;;;;;;;4.20;99.90;;;;;;5068606;28;20402;-62
2022/12/09 10:51:48;;;;;;;;;;;4.30;99.90;;;;;;5070142;28;19916;-63
2022/12/09 10:54:31;;;;;;;;;;;4.20;99.90;;;;;;5070204;28;19912;-62
2022/12/09 10:57:02;;;;;;;;;;;4.20;99.90;;;;;;5070497;28;19916;-62
2022/12/09 10:59:28;;;;;;;;;;;4.30;99.90;;;;;;5069884;28;19912;-62
2022/12/09 11:01:54;;;;;;;;;;;4.40;99.90;;;;;;5070241;28;19920;-62
2022/12/09 11:04:27;;;;;;;;;;;4.40;99.90;;;;;;5068794;28;20304;-63
2022/12/09 11:06:54;;;;;;;;;;;4.40;99.90;;;;;;5070390;28;19915;-63
2022/12/09 11:09:25;;;;;;;;;;;4.40;99.90;;;;;;5069956;28;19920;-63
2022/12/09 11:11:50;;;;;;;;;;;4.40;99.90;;;;;;5068378;28;19916;-61
2022/12/09 11:14:24;;;;;;;;;;;4.30;99.90;;;;;;5070324;28;20282;-62
2022/12/09 11:16:54;;;;;;;;;;;4.30;99.90;;;;;;5058286;28;20443;-63
2022/12/09 11:19:30;;;;;;;;;;;4.30;99.90;;;;;;5063069;28;19950;-63
2022/12/09 11:22:14;;;;;;;;;;;4.30;99.90;;;;;;5069930;28;20007;-62
2022/12/09 11:24:40;;;;;;;;;;;4.40;99.90;;;;;;5071187;28;19908;-63
2022/12/09 11:27:22;;;;;;;;;;;4.30;99.90;;;;;;5071199;28;20377;-63
2022/12/09 11:30:02;;;;;;;;;;;4.30;99.90;;;;;;5070654;28;19962;-63
2022/12/09 11:32:28;;;;;;;;;;;4.20;99.90;;;;;;5070223;28;19986;-62
2022/12/09 11:34:53;;;;;;;;;;;4.30;99.90;;;;;;5070137;28;19909;-63
2022/12/09 11:37:19;;;;;;;;;;;4.30;99.90;;;;;;5070705;28;19915;-63
2022/12/09 11:39:47;;;;;;;;;;;4.40;99.90;;;;;;5072687;28;19909;-63
2022/12/09 11:42:17;;;;;;;;;;;4.40;99.90;;;;;;5074688;28;19912;-63
2022/12/09 11:45:04;;;;;;;;;;;4.30;99.90;;;;;;5073852;28;20008;-61
2022/12/09 11:47:37;;;;;;;;;;;4.30;99.90;;;;;;5073289;28;19916;-63
2022/12/09 11:50:06;;;;;;;;;;;4.30;99.90;;;;;;5074236;28;20290;-63
2022/12/09 11:52:32;;;;;;;;;;;4.20;99.90;;;;;;5074400;28;20364;-63
2022/12/09 11:55:09;;;;;;;;;;;4.30;99.90;;;;;;5073366;28;19919;-62
2022/12/09 11:57:49;;;;;;;;;;;4.30;99.90;;;;;;5074631;28;20019;-63
2022/12/09 12:00:17;;;;;;;;;;;4.30;99.90;;;;;;5072618;28;19919;-63
2022/12/09 12:02:45;;;;;;;;;;;4.40;99.90;;;;;;5073361;28;20467;-63
2022/12/09 12:05:17;;;;;;;;;;;4.40;99.90;;;;;;5073197;28;19909;-63
2022/12/09 12:08:06;;;;;;;;;;;4.40;99.90;;;;;;5074021;28;20283;-63
2022/12/09 12:10:37;;;;;;;;;;;4.40;99.90;;;;;;5044880;28;19913;-63
2022/12/09 12:13:23;;;;;;;;;;;4.40;99.90;;;;;;5073888;28;19912;-63
2022/12/09 12:16:09;;;;;;;;;;;4.40;99.90;;;;;;5061084;28;20386;-62
2022/12/09 12:18:38;;;;;;;;;;;4.50;99.90;;;;;;5074018;28;19943;-63
2022/12/09 12:21:06;;;;;;;;;;;4.60;99.90;;;;;;5073676;28;19908;-63
2022/12/09 12:23:32;;;;;;;;;;;4.60;99.90;;;;;;5073707;28;20049;-63
2022/12/09 12:26:16;;;;;;;;;;;4.70;99.90;;;;;;5072645;28;20421;-62
2022/12/09 12:28:48;;;;;;;;;;;4.60;99.90;;;;;;5072237;28;20008;-63
2022/12/09 12:31:36;;;;;;;;;;;4.60;99.90;;;;;;5070032;28;19924;-64
2022/12/09 12:34:08;;;;;;;;;;;4.60;99.90;;;;;;5018059;28;19916;-64
2022/12/09 12:36:42;;;;;;;;;;;4.60;99.90;;;;;;5064848;28;19912;-62
2022/12/09 12:39:25;;;;;;;;;;;4.60;99.90;;;;;;5065836;28;19928;-64
2022/12/09 12:41:55;;;;;;;;;;;4.50;99.90;;;;;;5059632;28;20408;-64
2022/12/09 12:47:26;;;;;;;;;;;4.50;99.90;;;;;;5059541;28;19958;-63
2022/12/09 12:50:11;;;;;;;;;;;4.50;99.90;;;;;;5058079;28;19968;-63
2022/12/09 12:52:42;;;;;;;;;;;4.60;99.90;;;;;;5064095;28;20441;-63
2022/12/09 12:55:22;;;;;;;;;;;4.50;99.90;;;;;;5064370;28;19912;-64
2022/12/09 12:58:00;;;;;;;;;;;4.50;99.90;;;;;;5063038;28;19947;-62
2022/12/09 13:00:31;;;;;;;;;;;4.60;99.90;;;;;;5059448;28;19995;-63
2022/12/09 13:03:23;;;;;;;;;;;4.80;99.90;;;;;;5064847;28;19924;-63
2022/12/09 13:05:49;;;;;;;;;;;4.90;99.90;;;;;;5043519;28;20650;-64
2022/12/09 13:08:33;;;;;;;;;;;5.00;99.90;;;;;;5065960;28;20378;-64
2022/12/09 13:11:01;;;;;;;;;;;4.90;99.90;;;;;;5068471;28;19920;-64
2022/12/09 13:13:37;;;;;;;;;;;4.90;99.90;;;;;;5064634;28;19969;-63
2022/12/09 13:16:22;;;;;;;;;;;4.90;99.90;;;;;;5066281;28;19916;-64
2022/12/09 13:18:48;;;;;;;;;;;4.90;99.90;;;;;;5056224;28;19920;-64
2022/12/09 13:21:14;;;;;;;;;;;4.90;99.90;;;;;;5062097;28;19942;-64
2022/12/09 13:23:39;;;;;;;;;;;4.90;99.90;;;;;;5060590;28;19920;-64
2022/12/09 13:26:05;;;;;;;;;;;5.00;99.90;;;;;;5062459;28;20007;-64
2022/12/09 13:28:54;;;;;;;;;;;5.00;99.90;;;;;;5062547;28;19909;-64
2022/12/09 13:31:21;;;;;;;;;;;5.10;99.90;;;;;;5054105;28;20411;-63
2022/12/09 13:33:51;;;;;;;;;;;4.90;99.90;;;;;;5063978;28;19912;-63
2022/12/09 13:36:35;;;;;;;;;;;4.80;99.90;;;;;;5063372;28;19912;-64
2022/12/09 13:39:01;;;;;;;;;;;4.70;99.90;;;;;;5062207;28;20481;-63
2022/12/09 13:41:26;;;;;;;;;;;4.60;99.90;;;;;;5059028;28;19999;-63
2022/12/09 13:43:52;;;;;;;;;;;4.50;99.90;;;;;;5062971;28;20008;-64
2022/12/09 13:46:25;;;;;;;;;;;4.50;99.90;;;;;;5043441;28;19912;-63
2022/12/09 13:48:52;;;;;;;;;;;4.50;99.90;;;;;;5061525;28;19912;-62
2022/12/09 13:51:18;;;;;;;;;;;4.60;99.90;;;;;;5059105;28;19917;-62
2022/12/09 13:54:03;;;;;;;;;;;4.60;99.90;;;;;;5063555;28;19920;-63
2022/12/09 13:56:32;;;;;;;;;;;4.50;99.90;;;;;;5058769;28;20011;-63
2022/12/09 13:59:17;;;;;;;;;;;4.50;99.90;;;;;;5065289;28;19917;-63
2022/12/09 14:01:42;;;;;;;;;;;4.40;99.90;;;;;;5061933;28;19928;-61
2022/12/09 14:04:17;;;;;;;;;;;4.50;99.90;;;;;;5060398;28;19913;-63
2022/12/09 14:06:45;;;;;;;;;;;4.40;99.90;;;;;;5065256;28;19912;-63
2022/12/09 14:09:25;;;;;;;;;;;4.50;99.90;;;;;;5065059;28;19947;-63
2022/12/09 14:11:52;;;;;;;;;;;4.50;99.90;;;;;;5059301;28;20425;-63
2022/12/09 14:14:24;;;;;;;;;;;4.50;99.90;;;;;;5068359;28;19917;-63
2022/12/09 14:16:52;;;;;;;;;;;4.50;99.90;;;;;;5064607;28;21382;-61
2022/12/09 14:19:23;;;;;;;;;;;4.40;99.90;;;;;;5068896;28;20464;-63
2022/12/09 14:22:11;;;;;;;;;;;4.40;99.90;;;;;;5056909;28;19956;-63
2022/12/09 14:24:37;;;;;;;;;;;4.50;99.90;;;;;;5059930;28;19917;-63
2022/12/09 14:27:02;;;;;;;;;;;4.40;99.90;;;;;;5063126;28;19933;-62
2022/12/09 14:29:47;;;;;;;;;;;4.40;99.90;;;;;;5067092;28;19922;-63
2022/12/09 14:32:18;;;;;;;;;;;4.30;99.90;;;;;;5055282;28;20018;-63
2022/12/09 14:34:46;;;;;;;;;;;4.30;99.90;;;;;;5059466;28;19924;-63
2022/12/09 14:37:17;;;;;;;;;;;4.30;99.90;;;;;;5060870;28;20310;-63
2022/12/09 14:39:45;;;;;;;;;;;4.40;99.90;;;;;;5057075;28;20399;-63
2022/12/09 14:42:33;;;;;;;;;;;4.30;99.90;;;;;;5059298;28;19959;-63